This is the latest recevied weather packets stored in our database for station/object HB9HFD-13. If no packets are shown the sender has not sent any weather packets the latest 1 day(s).
| Time | Temp. | Humidity | Pressure | Rain* | Wind** | Luminosity | Snow |
|---|---|---|---|---|---|---|---|
| 1777997701 | 15.56° C | 66% | 1007.1 hPa | 0 mm | 0.89 m/s, 295° | - | - |
| 1777997401 | 15.56° C | 68% | 1007.1 hPa | 0 mm | 0.45 m/s, 314° | - | - |
| 1777997101 | 15.56° C | 68% | 1007.1 hPa | 0 mm | 0.45 m/s, 296° | - | - |
| 1777996801 | 15.56° C | 67% | 1007.2 hPa | 0 mm | 0.89 m/s, 314° | - | - |
| 1777996500 | 15.56° C | 66% | 1007.2 hPa | 0 mm | 0.89 m/s, 293° | - | - |
| 1777996200 | 15° C | 67% | 1007.2 hPa | 0 mm | 0.89 m/s, 288° | - | - |
| 1777995900 | 15° C | 67% | 1007.1 hPa | 0 mm | 0.89 m/s, 293° | - | - |
| 1777995600 | 15° C | 68% | 1007.1 hPa | 0 mm | 0.89 m/s, 314° | - | - |
| 1777995299 | 15.56° C | 72% | 1007.3 hPa | 0 mm | 0.89 m/s, 313° | - | - |
| 1777994999 | 16.11° C | 75% | 1007.4 hPa | 0 mm | 0.45 m/s, 269° | - | - |
| 1777994699 | 16.11° C | 75% | 1007.4 hPa | 0 mm | 0.45 m/s, 312° | - | - |
| 1777994399 | 16.67° C | 73% | 1007.3 hPa | 0 mm | 0.45 m/s, 311° | - | - |
| 1777994098 | 16.67° C | 72% | 1007.3 hPa | 0 mm | 0.45 m/s, 304° | - | - |
| 1777993798 | 16.67° C | 74% | 1007.2 hPa | 0 mm | 0.45 m/s, 314° | - | - |
| 1777993498 | 17.22° C | 70% | 1007.2 hPa | 0 mm | 0.45 m/s, 299° | - | - |
| 1777993197 | 18.33° C | 70% | 1007.3 hPa | 0 mm | 0 m/s | - | - |
| 1777992897 | 17.78° C | 74% | 1007.1 hPa | 0 mm | 0.45 m/s, 47° | - | - |
| 1777992597 | 17.22° C | 72% | 1007.2 hPa | 0 mm | 0.45 m/s, 314° | - | - |
| 1777992297 | 17.22° C | 77% | 1007.2 hPa | 0 mm | 0 m/s | - | - |
| 1777991996 | 16.67° C | 79% | 1007.2 hPa | 0 mm | 0 m/s | - | - |
| 1777991696 | 16.11° C | 80% | 1007.2 hPa | 0 mm | 0 m/s | - | - |
| 1777991396 | 15.56° C | 83% | 1007.3 hPa | 0 mm | 0 m/s | - | - |
| 1777991096 | 15.56° C | 80% | 1007.4 hPa | 0 mm | 0 m/s | - | - |
| 1777990795 | 15.56° C | 80% | 1007.4 hPa | 0 mm | 0 m/s | - | - |
| 1777990495 | 15.56° C | 82% | 1007.4 hPa | 0 mm | 0 m/s | - | - |
* Rain latest hour (hover to see other rain measurements)
** Current wind speed in m/s (hover to see current wind gust speed)